Terminal Aerodrome Forecast
Issued by NWS

Home | Current Version | Previous Version | Text Only | Print | Product List | Glossary On
Versions: 1 2 3 4 5 6 7 8 9 10 11 12 13 14 15 16 17 18
000
FTUS46 KMTR 242300
TAFSJC
TAF
KSJC 242335Z 2500/2524 30014G20KT P6SM FEW028 SCT160
     FM250100 30014KT P6SM FEW028 SCT160
     FM250600 29005KT P6SM BKN015
     FM250900 18010KT P6SM OVC015
     FM251700 VRB04KT P6SM FEW025
     FM252000 30012KT P6SM FEW025=

USA.gov is the U.S. government's official web portal to all federal, state and local government web resources and services.